KCVS/CVS METAR and TAF weather

Enter ICAO airport designator
Station Type Date Time Source
KCVS METAR 2019/12/13 13:58 UTC NOAA

KCVS 131358Z AUTO 25014KT 10SM CLR 04/M03 A3000 RMK AO2 SLP147 T00421031 $


Station Type Date Time Source
KCVS Decoded METAR 2019/12/13 13:58 UTC NOAA

Cannon Air Force Base / Clovis, NM, United States (KCVS) 34-23N 103-19W
Dec 13, 2019 - 08:58 AM EST / 2019.12.13 1358 UTC
Wind: from the WSW (250 degrees) at 16 MPH (14 KT):0
Visibility: 10 mile(s):0
Sky conditions: clear
Temperature: 39.6 F (4.2 C)
Dew Point: 26.4 F (-3.1 C)
Relative Humidity: 58%
Pressure (altimeter): 30 in. Hg (1015 hPa)
ob: KCVS 131358Z AUTO 25014KT 10SM CLR 04/M03 A3000 RMK AO2 SLP147 T00421031
cycle: 14

Station Type Date Time Source
KCVS TAF 2019/12/13 10:18 UTC NOAA

TAF TAF KCVS 131000Z 1310/1416 28010KT 9999 BKN250 QNH2998INS
BECMG 1312/1313 29010G15KT 9999 SCT250 QNH3001INS
BECMG 1314/1315 30015G25KT 9999 FEW250 510003 QNH2996INS
TEMPO 1317/1322 32018G30KT
BECMG 1322/1323 31010G15KT 9999 SKC QNH2994INS
BECMG 1402/1403 30010KT 9999 SKC QNH2992INS
BECMG 1408/1409 VRB06KT 9999 FEW120 QNH2984INS TX17/1321Z TN04/1312Z

Example: see airport list